Forecasts are only available for sites displaying the forecast symbol.

Some water levels are actually in metres AHD (Australian Height Datum), click individual sites for more details.

Scroll for more >

River gauges, storages, and weirs in the Murray–Darling Basin

Type Locationsort descending River Water level Flow Volume Release Water temp Salinity Rainfall
River Gauge Albury (Union Bridge) Murray 1.1 m 25/10/2020 11:15 Not measured Not measured Not measured 14.8°C 25/10/2020 11:15 50.8 μS/cm 25/10/2020 11:15 Not measured Full data
River Gauge Balranald Murrumbidgee 1.6 m 25/10/2020 10:45 1181 ML/Day 25/10/2020 10:45 Not measured Not measured 19.8°C 25/10/2020 10:45 180.4 μS/cm 25/10/2020 10:45 Not measured Full data
River Gauge Bandiana Kiewa 2.75 m 25/10/2020 10:45 3486 ML/Day 25/10/2020 10:45 Not measured Not measured 14.3°C 25/10/2020 10:45 43.8 μS/cm 25/10/2020 10:45 Not measured Full data
River Gauge Barmah Choke Murray 2.68 m 25/10/2020 10:45 8199 ML/Day 25/10/2020 10:45 Not measured Not measured Not measured Not measured Not measured Full data
River Gauge Biggara Murray 1.58 m 25/10/2020 11:15 5228 ML/Day 25/10/2020 11:15 Not measured Not measured 11.6°C 25/10/2020 11:15 40.6 μS/cm 25/10/2020 11:15 26.6 mm 24/10/2020 9:00 Full data
River Gauge Bringenbrong Bridge Murray 2.52 m 25/10/2020 11:15 12101 ML/Day 25/10/2020 11:15 Not measured Not measured Not measured Not measured Not measured Full data
River Gauge Burtundy Darling 0.77 m 25/10/2020 11:15 254 ML/Day 25/10/2020 11:15 Not measured Not measured 19.2°C 25/10/2020 11:15 375.0 μS/cm 25/10/2020 11:15 Not measured Full data
River Gauge Colemans Mitta 0.92 m 25/10/2020 12:00 221 ML/Day 25/10/2020 12:00 Not measured Not measured 14.9°C 25/10/2020 10:45 63.8 μS/cm 25/10/2020 10:45 Not measured Full data
River Gauge Colignan Murray 2.9 m 25/10/2020 10:45 14159 ML/Day 25/10/2020 10:45 Not measured Not measured 19.2°C 25/10/2020 10:45 88.4 μS/cm 25/10/2020 10:45 Not measured Full data
River Gauge Corowa Murray 1.43 m 25/10/2020 11:15 5251 ML/Day 25/10/2020 11:15 Not measured Not measured 16.9°C 25/10/2020 11:15 52.7 μS/cm 25/10/2020 11:15 Not measured Full data
Storage Dartmouth Dam Mitta 458.33 m 25/10/2020 12:00 Not measured 2293 GL 25/10/2020 12:00 Not measured Not measured Not measured Not measured Full data
River Gauge Doctors Point Murray 2.03 m 25/10/2020 11:15 4539 ML/Day 25/10/2020 11:15 Not measured Not measured 15.2°C 25/10/2020 11:15 60.9 μS/cm 25/10/2020 11:15 Not measured Full data
River Gauge Echuca Wharf Murray 87.72 m 22/10/2020 7:45 Not measured Not measured Not measured Not measured Not measured Not measured Full data
River Gauge Edward Escape Wakool 0.01 m 25/10/2020 10:45 0.00 ML/Day 25/10/2020 10:45 Not measured Not measured 18.9°C 25/10/2020 10:45 58.1 μS/cm 25/10/2020 10:45 Not measured Full data
River Gauge Edward River Offtake Murray 2.4 m 25/10/2020 11:15 1559 ML/Day 25/10/2020 11:15 Not measured Not measured 18.4°C 25/10/2020 10:45 43.7 μS/cm 25/10/2020 10:45 Not measured Full data
Weirs Euston Weir Downstream Murray 44.32 m 25/10/2020 10:45 14857 ML/Day 25/10/2020 10:45 Not measured Not measured 19.2°C 25/10/2020 10:45 112.2 μS/cm 25/10/2020 10:45 Not measured Full data
Weirs Euston Weir Upstream Murray 47.6 m 25/10/2020 8:45 Not measured 37 GL 25/10/2020 7:45 Not measured Not measured Not measured 145.9 mm 5/03/2020 9:00 Full data
River Gauge Flow to South Australia Murray Not measured Not measured Not measured 12248.6 ML/d23/10/2020 7:45 Not measured Not measured Not measured Full data
River Gauge Frenchman Creek Murray 27.45 m 23/10/2020 7:45 Not measured Not measured 1337.6 ML/d23/10/2020 7:45 Not measured Not measured Not measured Full data
River Gauge Gulpa Creek Offtake Murray 3.05 m 25/10/2020 10:45 709 ML/Day 25/10/2020 10:45 Not measured Not measured Not measured Not measured Not measured Full data
River Gauge Hinnomunjie Mitta 1.41 m 25/10/2020 10:45 3201 ML/Day 25/10/2020 10:45 Not measured Not measured 12.0°C 25/10/2020 10:45 262.1 μS/cm 25/10/2020 10:45 6.8 mm 24/10/2020 9:00 Full data
Storage Hume Dam Murray 188.43 m 25/10/2020 11:15 Not measured 2335 GL 25/10/2020 11:15 600.0 ML/d25/10/2020 8:00 Not measured Not measured 7.2 mm 24/10/2020 9:00 Full data
River Gauge Jingellic Murray 3.17 m 25/10/2020 10:45 19136 ML/Day 25/10/2020 10:45 Not measured Not measured 15.5°C 25/10/2020 10:45 64.9 μS/cm 25/10/2020 10:45 17.6 mm 24/10/2020 9:00 Full data
River Gauge Kerang Loddon 0.49 m 25/10/2020 10:45 474 ML/Day 25/10/2020 10:45 Not measured Not measured 17.6°C 25/10/2020 10:45 199.4 μS/cm 25/10/2020 10:45 Not measured Full data
River Gauge Lake Albert Murray 0.81 m 25/10/2020 5:45 Not measured 281 GL 25/10/2020 5:45 Not measured Not measured Not measured Not measured Full data
River Gauge Lake Alexandrina Murray 0.85 m 25/10/2020 5:45 Not measured 1676 GL 24/10/2020 5:45 Not measured Not measured 778.0 μS/cm 25/10/2020 9:45 Not measured Full data
Storage Lake Victoria Murray 26.52 m 25/10/2020 9:45 Not measured 619 GL 25/10/2020 9:45 Not measured 17.1°C 25/10/2020 9:45 115.0 μS/cm 25/10/2020 9:45 Not measured Full data
Weirs Lock 1 Downstream Murray 1.11 m 25/10/2020 10:45 Not measured Not measured 9017.7 ML/d23/10/2020 7:45 Not measured Not measured Not measured Full data
Weirs Lock 1 Upstream Murray 3.34 m 25/10/2020 10:45 Not measured Not measured Not measured 18.6°C 25/10/2020 10:45 210.1 μS/cm 25/10/2020 10:45 Not measured Full data
Weirs Lock 2 Downstream Murray 3.75 m 25/10/2020 10:45 Not measured Not measured Not measured Not measured Not measured Not measured Full data
Weirs Lock 2 Upstream Murray 6.29 m 25/10/2020 10:45 Not measured Not measured Not measured 19.1°C 25/10/2020 10:45 234.5 μS/cm 25/10/2020 10:45 Not measured Full data
Weirs Lock 3 Downstream Murray 6.69 m 25/10/2020 10:45 Not measured Not measured Not measured Not measured Not measured Not measured Full data
Weirs Lock 3 Upstream Murray 9.84 m 25/10/2020 10:45 Not measured Not measured Not measured Not measured Not measured Not measured Full data
Weirs Lock 4 Downstream Murray 10.98 m 25/10/2020 10:45 Not measured Not measured Not measured Not measured Not measured Not measured Full data
Weirs Lock 4 Upstream Murray 13.54 m 25/10/2020 10:45 Not measured Not measured Not measured Not measured Not measured Not measured Full data
Weirs Lock 5 Downstream Murray 13.86 m 25/10/2020 10:45 Not measured Not measured Not measured Not measured Not measured Not measured Full data
Weirs Lock 5 Upstream Murray 16.54 m 25/10/2020 10:45 Not measured Not measured Not measured 19.3°C 25/10/2020 10:45 173.1 μS/cm 25/10/2020 10:45 Not measured Full data
Weirs Lock 6 Downstream Murray 16.89 m 25/10/2020 10:45 Not measured Not measured Not measured Not measured Not measured Not measured Full data
Weirs Lock 6 Upstream Murray 19.36 m 25/10/2020 10:45 Not measured Not measured Not measured 19.8°C 25/10/2020 10:45 169.0 μS/cm 25/10/2020 10:45 Not measured Full data
Weirs Lock 7 Downstream Murray 21.08 m 25/10/2020 10:45 Not measured Not measured Not measured Not measured Not measured Not measured Full data
Weirs Lock 7 Upstream Murray 22.21 m 25/10/2020 10:45 Not measured Not measured Not measured 19.7°C 25/10/2020 10:45 155.8 μS/cm 25/10/2020 10:45 Not measured Full data
Weirs Lock 8 Upstream Murray 24.7 m 25/10/2020 10:45 Not measured Not measured Not measured 20.0°C 25/10/2020 10:45 158.9 μS/cm 25/10/2020 10:45 Not measured Full data
Weirs Lock 9 Downstream Murray 24.94 m 25/10/2020 10:45 Not measured Not measured Not measured Not measured Not measured Not measured Full data
Weirs Lock 9 Upstream Murray 27.45 m 25/10/2020 10:45 Not measured Not measured Not measured 20.0°C 25/10/2020 10:45 154.3 μS/cm 25/10/2020 10:45 Not measured Full data
River Gauge McCoy Bridge Goulburn 3.33 m 25/10/2020 10:45 4522 ML/Day 25/10/2020 10:45 Not measured Not measured 17.3°C 25/10/2020 10:45 105.5 μS/cm 25/10/2020 10:45 Not measured Full data
Storage Menindee Lakes Darling Not measured Not measured 452 GL 24/10/2020 7:45 Not measured Not measured Not measured Not measured Full data
Weirs Mildura Weir downstream Murray 31.27 m 25/10/2020 10:45 Not measured Not measured Not measured 20.3°C 25/10/2020 10:45 132.9 μS/cm 25/10/2020 10:45 Not measured Full data
River Gauge Morgan Downstream Murray Not measured Not measured Not measured 7171.4 ML/d25/10/2020 9:45 Not measured 229.7 μS/cm 25/10/2020 9:45 Not measured Full data
River Gauge Mulwala Canal Murray Not measured Not measured Not measured 799.2 ML/d25/10/2020 8:45 Not measured Not measured Not measured Full data
River Gauge Mundoo Barrage Murray 0.75 m 23/10/2020 7:45 Not measured Not measured Not measured Not measured Not measured Not measured Full data
River Gauge Murray Bridge Murray 0.83 m 25/10/2020 9:45 Not measured Not measured Not measured 17.3°C 25/10/2020 9:45 215.1 μS/cm 25/10/2020 9:45 Not measured Full data
River Gauge Peechelba Ovens 129.45 m 25/10/2020 10:45 10065 ML/Day 25/10/2020 10:45 Not measured Not measured 15.6°C 25/10/2020 10:45 42.2 μS/cm 25/10/2020 10:45 Not measured Full data
River Gauge Pinegrove Murray 3.31 m 25/10/2020 11:15 8927 ML/Day 25/10/2020 11:15 Not measured Not measured 15.7°C 25/10/2020 11:15 56.6 μS/cm 25/10/2020 11:15 26.2 mm 24/10/2020 9:00 Full data
River Gauge Redcliffs Murray Not measured Not measured Not measured Not measured Not measured 132.6 μS/cm 25/10/2020 7:45 Not measured Full data
River Gauge Rochester Campaspe 1.84 m 25/10/2020 10:45 169 ML/Day 25/10/2020 10:45 Not measured Not measured 17.9°C 25/10/2020 10:45 635.5 μS/cm 25/10/2020 10:45 1.8 mm 24/10/2020 9:00 Full data
River Gauge Rufus River Murray 21.22 m 23/10/2020 7:45 Not measured Not measured 2473.6 ML/d23/10/2020 7:45 Not measured 138.0 μS/cm 25/10/2020 9:45 Not measured Full data
Weirs Steven's Weir Downstream Edward 2.2 m 25/10/2020 10:45 2303 ML/Day 25/10/2020 10:45 Not measured Not measured 18.8°C 25/10/2020 10:45 52.6 μS/cm 25/10/2020 10:45 Not measured Full data
Weirs Steven's Weir Upstream Edward 4.66 m 25/10/2020 11:15 Not measured Not measured Not measured Not measured Not measured Not measured Full data
River Gauge Stoney Crossing Murray 1.46 m 25/10/2020 10:45 563 ML/Day 25/10/2020 10:45 Not measured 547.3 ML/d25/10/2020 7:45 19.2°C 25/10/2020 10:45 241.8 μS/cm 25/10/2020 10:45 Not measured Full data
River Gauge Swan Hill Murray 2.17 m 25/10/2020 10:45 12402 ML/Day 25/10/2020 10:45 Not measured Not measured 18.2°C 25/10/2020 10:45 111.0 μS/cm 25/10/2020 10:45 Not measured Full data
River Gauge Tallandoon Mitta 1.98 m 25/10/2020 10:45 2180 ML/Day 25/10/2020 10:45 Not measured Not measured 13.2°C 25/10/2020 10:45 46.3 μS/cm 25/10/2020 10:45 Not measured Full data
River Gauge Tauwitchere Barrage Murray 0.82 m 25/10/2020 10:45 Not measured Not measured Not measured Not measured Not measured Not measured Full data
River Gauge Tocumwal Murray 2.87 m 25/10/2020 10:45 15270 ML/Day 25/10/2020 10:45 Not measured Not measured 18.8°C 25/10/2020 10:45 45.6 μS/cm 25/10/2020 10:45 Not measured Full data
River Gauge Torrumbarry Headworks Murray 84.41 m 25/10/2020 10:45 Not measured Not measured 663.9 ML/d25/10/2020 10:45 Not measured Not measured Not measured Full data
Weirs Torrumbarry Weir Downstream Murray 3.83 m 25/10/2020 10:45 12679 ML/Day 25/10/2020 10:45 Not measured Not measured 19.0°C 25/10/2020 10:45 81.7 μS/cm 25/10/2020 10:45 Not measured Full data
Weirs Torrumbarry Weir Upstream Murray 86.05 m 25/10/2020 10:45 Not measured 37 GL 25/10/2020 7:45 Not measured 18.9°C 25/10/2020 7:45 81.9 μS/cm 25/10/2020 9:45 2.0 mm 24/10/2020 9:00 Full data
River Gauge Wakool Canal Wakool 0.58 m 25/10/2020 10:45 Not measured Not measured 600.3 ML/d25/10/2020 8:45 Not measured Not measured Not measured Full data
River Gauge Wakool Junction Murray 4.2 m 25/10/2020 10:45 13965 ML/Day 25/10/2020 10:45 Not measured Not measured 18.8°C 25/10/2020 10:45 91.6 μS/cm 25/10/2020 10:45 Not measured Full data
River Gauge Weir 32 Upstream Darling 1.47 m 25/10/2020 10:45 457 ML/Day 25/10/2020 10:45 Not measured Not measured 18.8°C 25/10/2020 10:45 308.2 μS/cm 25/10/2020 10:45 Not measured Full data
Weirs Wentworth Weir Murray 28.08 m 25/10/2020 10:45 Not measured Not measured 13560.6 ML/d25/10/2020 8:45 Not measured 155.9 μS/cm 23/10/2020 7:45 Not measured Full data
River Gauge Wilcania Darling 0.18 m 25/10/2020 10:45 46 ML/Day 25/10/2020 10:45 Not measured Not measured 21.9°C 25/10/2020 10:45 815.8 μS/cm 25/10/2020 10:45 Not measured Full data
River Gauge Yarrawonga Main Channel Murray 123.2 m 25/10/2020 10:45 Not measured Not measured 138.6 ML/d25/10/2020 10:45 Not measured Not measured Not measured Full data
Weirs Yarrawonga Weir Downstream Murray 2.27 m 25/10/2020 11:15 15148 ML/Day 25/10/2020 11:15 Not measured Not measured 18.2°C 25/10/2020 11:15 47.5 μS/cm 25/10/2020 11:15 Not measured Full data
Weirs Yarrawonga Weir Upstream Murray 124.87 m 25/10/2020 10:45 Not measured Not measured Not measured Not measured Not measured 0.2 mm 25/10/2020 9:00 Full data